Time;durP1;ratioP1;P1;durP2;ratioP2;P2;SDS_P1;SDS_P2;PMS_P1;PMS_P2;Temp;Humidity;BMP_temperature;BMP_pressure;BME280_temperature;BME280_humidity;BME280_pressure;Samples;Min_cycle;Max_cycle;Signal;HPM_P1;HPM_P2
2023/01/23 04:02:38;;;;;;;6.17;5.57;;;3.40;82.70;;;;;;5102076;23;20911;-68
2023/01/23 04:05:06;;;;;;;6.60;6.00;;;3.40;82.90;;;;;;4955401;29;20451;-68
2023/01/23 04:07:32;;;;;;;6.73;6.07;;;3.30;82.70;;;;;;4955429;29;20451;-66
2023/01/23 04:09:59;;;;;;;6.17;5.57;;;3.30;83.10;;;;;;4955020;29;20941;-68
2023/01/23 04:12:26;;;;;;;7.00;6.40;;;3.30;82.80;;;;;;4955262;29;20542;-68
2023/01/23 04:14:52;;;;;;;6.77;6.10;;;3.30;83.10;;;;;;4963298;23;20506;-68
2023/01/23 04:17:19;;;;;;;7.00;6.30;;;3.30;83.20;;;;;;4955623;29;20502;-68
2023/01/23 04:19:47;;;;;;;7.20;6.57;;;3.30;83.20;;;;;;4955521;29;20507;-68
2023/01/23 04:22:14;;;;;;;7.70;6.73;;;3.40;82.90;;;;;;4955578;29;20502;-68
2023/01/23 04:24:40;;;;;;;10.30;6.80;;;3.20;82.90;;;;;;4955503;29;20471;-67
2023/01/23 04:27:07;;;;;;;9.50;7.00;;;3.20;83.70;;;;;;4955665;29;20451;-68
2023/01/23 04:29:33;;;;;;;7.50;6.73;;;3.20;83.50;;;;;;4955674;29;20506;-67
2023/01/23 04:32:00;;;;;;;7.33;6.63;;;3.10;83.30;;;;;;4955572;29;20451;-68
2023/01/23 04:34:27;;;;;;;6.67;5.97;;;3.20;83.70;;;;;;4955474;29;20546;-68
2023/01/23 04:36:55;;;;;;;8.17;7.20;;;3.20;83.30;;;;;;4955251;29;21003;-67
2023/01/23 04:39:21;;;;;;;9.50;6.80;;;3.00;83.80;;;;;;4955165;29;20542;-68
2023/01/23 04:41:48;;;;;;;7.27;6.57;;;3.00;84.00;;;;;;4955367;29;20510;-67
2023/01/23 04:44:20;;;;;;;6.73;6.17;;;3.10;84.00;;;;;;4957591;28;20467;-68
2023/01/23 04:46:48;;;;;;;8.33;7.63;;;3.00;83.80;;;;;;4959345;29;20446;-66
2023/01/23 04:49:15;;;;;;;7.23;6.53;;;3.00;84.10;;;;;;4958844;29;20972;-68
2023/01/23 04:51:43;;;;;;;8.30;7.47;;;2.90;84.40;;;;;;4958850;29;20868;-67
2023/01/23 04:54:11;;;;;;;7.70;6.27;;;2.80;84.20;;;;;;4959136;29;20474;-68
2023/01/23 04:56:38;;;;;;;7.30;6.60;;;2.60;85.10;;;;;;4959088;29;20462;-67
2023/01/23 04:59:04;;;;;;;7.53;6.83;;;2.60;85.30;;;;;;4958836;29;20451;-67
2023/01/23 05:01:31;;;;;;;7.80;6.90;;;2.70;85.20;;;;;;4958722;29;21020;-68
2023/01/23 05:03:58;;;;;;;9.87;8.20;;;2.60;85.40;;;;;;4959594;29;20534;-68
2023/01/23 05:06:24;;;;;;;7.60;6.83;;;2.80;85.30;;;;;;4958812;29;20949;-68
2023/01/23 05:08:51;;;;;;;8.37;7.60;;;2.80;85.10;;;;;;4958783;29;20501;-68
2023/01/23 05:11:19;;;;;;;8.50;7.70;;;2.90;84.60;;;;;;4958544;29;20456;-67
2023/01/23 05:13:46;;;;;;;7.43;6.73;;;2.90;84.70;;;;;;4958348;29;20905;-68
2023/01/23 05:16:13;;;;;;;8.53;7.63;;;2.90;84.40;;;;;;4958732;29;20517;-68
2023/01/23 05:18:39;;;;;;;7.47;6.57;;;3.10;84.20;;;;;;4958374;29;20948;-68
2023/01/23 05:21:06;;;;;;;6.80;6.13;;;3.00;83.70;;;;;;4960796;29;20533;-68
2023/01/23 05:23:33;;;;;;;8.60;6.70;;;3.00;84.00;;;;;;4961782;29;20907;-67
2023/01/23 05:26:00;;;;;;;7.43;6.73;;;3.00;84.10;;;;;;4962679;29;20510;-68
2023/01/23 05:28:28;;;;;;;7.07;6.37;;;3.00;84.00;;;;;;4958699;29;20494;-68
2023/01/23 05:30:54;;;;;;;7.97;7.27;;;2.90;84.40;;;;;;4958300;29;20502;-68
2023/01/23 05:33:21;;;;;;;7.50;6.70;;;3.00;84.10;;;;;;4958525;29;20478;-68
2023/01/23 05:35:48;;;;;;;8.40;7.60;;;2.90;84.20;;;;;;4958273;29;20459;-68
2023/01/23 05:38:14;;;;;;;7.27;6.47;;;2.90;84.20;;;;;;4958182;29;20455;-68
2023/01/23 05:40:41;;;;;;;8.60;7.00;;;2.80;84.40;;;;;;4957859;29;20478;-67
2023/01/23 05:43:09;;;;;;;7.93;7.23;;;2.80;84.80;;;;;;4957795;29;20471;-68
2023/01/23 05:45:37;;;;;;;7.37;6.70;;;2.80;84.50;;;;;;4958074;29;20447;-68
2023/01/23 05:48:04;;;;;;;8.10;6.67;;;2.80;84.70;;;;;;4958295;29;20865;-69
2023/01/23 05:50:31;;;;;;;8.43;7.50;;;3.00;84.40;;;;;;4962871;29;20952;-67
2023/01/23 05:52:58;;;;;;;7.47;6.77;;;3.00;83.90;;;;;;4962801;29;20485;-68
2023/01/23 05:55:24;;;;;;;7.50;6.80;;;3.00;84.50;;;;;;4957090;28;20458;-68
2023/01/23 05:57:51;;;;;;;8.83;7.93;;;3.10;84.30;;;;;;4957655;29;20447;-68
2023/01/23 06:00:19;;;;;;;8.83;7.93;;;3.10;83.90;;;;;;4957623;29;20482;-68
2023/01/23 06:02:47;;;;;;;8.33;7.53;;;3.00;83.70;;;;;;4957804;28;20514;-68
2023/01/23 06:05:13;;;;;;;7.57;6.87;;;3.00;84.20;;;;;;4957901;29;20450;-68
2023/01/23 06:07:40;;;;;;;8.00;7.20;;;3.00;83.90;;;;;;4957877;29;20447;-68
2023/01/23 06:10:08;;;;;;;7.90;7.17;;;2.90;84.50;;;;;;4959658;29;20506;-67
2023/01/23 06:12:34;;;;;;;8.10;7.30;;;2.90;84.50;;;;;;4958641;29;20451;-67
2023/01/23 06:15:01;;;;;;;8.37;7.37;;;2.80;84.40;;;;;;4957046;29;20475;-68
2023/01/23 06:17:28;;;;;;;6.83;6.20;;;2.80;84.80;;;;;;4957461;29;20459;-68
2023/01/23 06:19:57;;;;;;;9.60;8.60;;;2.70;84.70;;;;;;4957761;29;20537;-68
2023/01/23 06:22:24;;;;;;;8.40;7.10;;;2.70;85.40;;;;;;4958576;29;20451;-68
2023/01/23 06:24:51;;;;;;;7.03;6.33;;;2.70;84.90;;;;;;4958254;29;20518;-68
2023/01/23 06:27:18;;;;;;;8.30;7.33;;;2.60;85.50;;;;;;4958010;29;20467;-68
2023/01/23 06:29:44;;;;;;;7.03;6.33;;;2.40;86.00;;;;;;4957026;29;20510;-68
2023/01/23 06:32:11;;;;;;;8.57;7.70;;;2.50;86.50;;;;;;4956750;29;20459;-69
2023/01/23 06:34:38;;;;;;;8.50;7.60;;;2.50;85.90;;;;;;4957015;29;20530;-68
2023/01/23 06:37:06;;;;;;;7.00;6.30;;;2.60;85.80;;;;;;4957897;28;20502;-68
2023/01/23 06:39:33;;;;;;;7.50;6.80;;;2.50;85.60;;;;;;4957230;29;20443;-69
2023/01/23 06:41:59;;;;;;;8.23;7.33;;;2.50;86.50;;;;;;4956976;29;20818;-68
2023/01/23 06:44:26;;;;;;;8.17;7.40;;;2.60;86.00;;;;;;4956990;29;20526;-68
2023/01/23 06:46:53;;;;;;;7.50;6.70;;;2.60;85.80;;;;;;4957235;29;20446;-68
2023/01/23 06:49:20;;;;;;;8.10;7.40;;;2.70;85.50;;;;;;4957009;29;20475;-68
2023/01/23 06:51:47;;;;;;;6.90;6.30;;;2.80;85.00;;;;;;4957173;29;20858;-68
2023/01/23 06:54:15;;;;;;;8.07;7.00;;;2.60;84.70;;;;;;4956941;29;20466;-68
2023/01/23 06:56:41;;;;;;;8.03;7.33;;;2.40;85.50;;;;;;4956785;29;20452;-68
2023/01/23 06:59:08;;;;;;;7.37;6.67;;;2.20;86.50;;;;;;4956906;29;20454;-68
2023/01/23 07:01:35;;;;;;;8.10;7.30;;;2.20;86.50;;;;;;4956988;29;20522;-68
2023/01/23 07:04:01;;;;;;;8.00;7.30;;;2.10;86.90;;;;;;4956824;29;20471;-68
2023/01/23 07:06:30;;;;;;;8.03;6.50;;;2.10;87.20;;;;;;4956892;28;20498;-69
2023/01/23 07:08:57;;;;;;;8.93;8.00;;;2.20;87.40;;;;;;4957814;29;20506;-69
2023/01/23 07:11:25;;;;;;;7.07;6.20;;;2.20;86.80;;;;;;4964020;29;20475;-68
2023/01/23 07:13:52;;;;;;;8.13;7.33;;;2.10;87.40;;;;;;4960536;29;20491;-68
2023/01/23 07:16:19;;;;;;;7.70;6.83;;;2.00;87.20;;;;;;4959302;29;20443;-69
2023/01/23 07:18:46;;;;;;;6.87;6.17;;;2.20;87.60;;;;;;4958881;29;20451;-69
2023/01/23 07:21:12;;;;;;;8.63;7.43;;;2.30;87.00;;;;;;4958771;29;21020;-68
2023/01/23 07:23:39;;;;;;;9.33;6.97;;;2.20;86.80;;;;;;4958862;29;20996;-68
2023/01/23 07:26:08;;;;;;;8.73;7.93;;;2.10;87.50;;;;;;4957922;29;20506;-68
2023/01/23 07:28:36;;;;;;;11.80;7.60;;;2.10;87.30;;;;;;4958367;29;20457;-67
2023/01/23 07:31:04;;;;;;;9.47;7.40;;;2.10;87.00;;;;;;4957825;29;20443;-69
2023/01/23 07:33:31;;;;;;;7.40;6.67;;;2.10;87.10;;;;;;4957371;29;20473;-69
2023/01/23 07:35:58;;;;;;;7.73;7.03;;;2.20;87.10;;;;;;4957184;29;20450;-68
2023/01/23 07:38:25;;;;;;;7.20;6.50;;;2.10;87.10;;;;;;4956984;29;20939;-68
2023/01/23 07:40:52;;;;;;;7.97;7.07;;;2.20;87.10;;;;;;4957346;29;20577;-69
2023/01/23 07:43:19;;;;;;;8.17;7.40;;;2.20;87.20;;;;;;4957258;29;20471;-69
2023/01/23 07:45:47;;;;;;;8.33;6.80;;;2.40;86.80;;;;;;4957263;29;20802;-68
2023/01/23 07:48:13;;;;;;;8.97;8.07;;;2.50;86.30;;;;;;4956996;29;20510;-68
2023/01/23 07:50:40;;;;;;;8.37;7.57;;;2.50;86.40;;;;;;4957101;29;20443;-68
2023/01/23 07:53:07;;;;;;;7.97;7.20;;;2.50;86.20;;;;;;4956680;29;20474;-68
2023/01/23 07:55:34;;;;;;;7.33;6.60;;;2.50;86.80;;;;;;4957060;29;20454;-67
2023/01/23 07:58:00;;;;;;;7.13;6.43;;;2.60;86.40;;;;;;4956759;29;20511;-68
2023/01/23 08:00:28;;;;;;;7.30;6.60;;;2.60;86.00;;;;;;4957306;29;20491;-68
2023/01/23 08:02:56;;;;;;;7.17;6.47;;;2.60;86.20;;;;;;4957873;29;20455;-68
2023/01/23 08:05:23;;;;;;;7.63;6.83;;;2.60;85.90;;;;;;4957707;29;20451;-69
2023/01/23 08:07:49;;;;;;;7.03;6.33;;;2.50;86.40;;;;;;4956476;29;20454;-69
2023/01/23 08:10:17;;;;;;;7.70;6.87;;;2.50;86.20;;;;;;4956826;29;20454;-68
2023/01/23 08:12:43;;;;;;;9.13;8.23;;;2.50;86.30;;;;;;4956808;29;20455;-68
2023/01/23 08:15:11;;;;;;;8.90;8.00;;;2.70;86.00;;;;;;4956245;29;20623;-68
2023/01/23 08:17:37;;;;;;;8.77;7.97;;;2.80;85.40;;;;;;4956162;29;20447;-68
2023/01/23 08:20:06;;;;;;;8.60;7.70;;;2.90;85.60;;;;;;4956219;29;20522;-68
2023/01/23 08:22:33;;;;;;;8.10;7.30;;;3.10;85.00;;;;;;4956919;28;20510;-66
2023/01/23 08:25:00;;;;;;;7.33;6.43;;;3.10;84.40;;;;;;4956627;29;20466;-68
2023/01/23 08:27:26;;;;;;;7.27;6.50;;;3.10;84.60;;;;;;4957081;29;20514;-68
2023/01/23 08:29:53;;;;;;;7.40;6.20;;;3.20;84.30;;;;;;4957099;29;21023;-68
2023/01/23 08:32:20;;;;;;;8.87;7.40;;;3.10;84.00;;;;;;4955999;29;20455;-68
2023/01/23 08:34:46;;;;;;;9.20;7.57;;;2.90;84.50;;;;;;4955622;29;20470;-68
2023/01/23 08:37:14;;;;;;;8.80;7.90;;;2.90;84.80;;;;;;4955745;29;20519;-69
2023/01/23 08:39:41;;;;;;;9.43;8.53;;;3.00;85.00;;;;;;4955698;29;20454;-69
2023/01/23 08:42:08;;;;;;;8.10;7.30;;;3.10;84.50;;;;;;4955992;29;20497;-69
2023/01/23 08:44:34;;;;;;;8.20;7.40;;;3.10;84.00;;;;;;4955897;29;20478;-68
2023/01/23 08:47:02;;;;;;;7.40;6.47;;;2.80;84.50;;;;;;4955919;29;20451;-69
2023/01/23 08:49:29;;;;;;;9.23;7.80;;;2.90;85.00;;;;;;4955693;29;20461;-69
2023/01/23 08:51:57;;;;;;;7.47;6.67;;;2.70;84.80;;;;;;4955458;29;20510;-69
2023/01/23 08:54:26;;;;;;;9.33;8.43;;;2.60;85.50;;;;;;4955205;29;20501;-69
2023/01/23 08:56:52;;;;;;;8.77;7.77;;;2.70;85.70;;;;;;4956259;29;20458;-68
2023/01/23 08:59:19;;;;;;;7.87;7.07;;;2.50;85.80;;;;;;4956090;29;20506;-69
2023/01/23 09:01:46;;;;;;;7.30;6.60;;;2.50;86.10;;;;;;4956611;29;20530;-68
2023/01/23 09:04:13;;;;;;;8.03;7.33;;;2.60;86.20;;;;;;4955940;29;20947;-68
2023/01/23 09:06:40;;;;;;;9.13;8.37;;;2.60;85.40;;;;;;4956288;29;20525;-68
2023/01/23 09:09:06;;;;;;;9.13;8.33;;;2.70;85.70;;;;;;4956418;29;20860;-67
2023/01/23 09:11:34;;;;;;;9.00;7.50;;;2.60;85.10;;;;;;4955372;29;21025;-67
2023/01/23 09:14:01;;;;;;;8.70;7.63;;;2.60;85.10;;;;;;4955129;29;20486;-68
2023/01/23 09:16:28;;;;;;;7.33;6.63;;;2.70;85.10;;;;;;4955469;29;20495;-69
2023/01/23 09:18:55;;;;;;;7.47;6.77;;;2.80;84.80;;;;;;4955271;29;20455;-69
2023/01/23 09:21:21;;;;;;;8.53;6.80;;;2.80;84.60;;;;;;4955269;29;20494;-69
2023/01/23 09:23:48;;;;;;;8.80;7.87;;;2.90;84.10;;;;;;4955036;29;20475;-68
2023/01/23 09:26:15;;;;;;;9.47;7.80;;;2.70;83.80;;;;;;4955101;29;20497;-69
2023/01/23 09:28:43;;;;;;;9.03;6.40;;;2.80;84.50;;;;;;4954803;29;20459;-68
2023/01/23 09:31:11;;;;;;;8.17;7.37;;;2.90;83.50;;;;;;4956686;28;20838;-69
2023/01/23 09:33:39;;;;;;;7.13;6.17;;;2.90;84.10;;;;;;4958471;29;20474;-70
2023/01/23 09:36:07;;;;;;;7.33;6.63;;;3.00;83.70;;;;;;4959032;29;20455;-69
2023/01/23 09:38:34;;;;;;;7.30;6.57;;;2.80;82.80;;;;;;4958762;28;20447;-68
2023/01/23 09:41:08;;;;;;;7.70;6.97;;;2.70;83.50;;;;;;4958237;29;20478;-68
2023/01/23 09:43:41;;;;;;;8.70;7.23;;;2.60;83.80;;;;;;4958731;29;20474;-68
2023/01/23 09:46:17;;;;;;;7.27;6.67;;;2.60;84.20;;;;;;4958159;29;20439;-68
2023/01/23 09:48:45;;;;;;;6.93;5.93;;;2.60;83.20;;;;;;4958187;29;20491;-68
2023/01/23 09:51:18;;;;;;;7.80;6.90;;;2.30;82.80;;;;;;4958046;28;20502;-69
2023/01/23 09:53:45;;;;;;;6.53;5.83;;;2.00;83.80;;;;;;4958034;29;20470;-68
2023/01/23 09:56:22;;;;;;;6.27;5.50;;;2.00;84.20;;;;;;4958200;29;20483;-68
2023/01/23 09:59:06;;;;;;;5.70;5.10;;;2.10;83.70;;;;;;4957919;29;20851;-68
2023/01/23 10:01:34;;;;;;;6.27;5.67;;;2.00;82.50;;;;;;4957780;29;20470;-69
2023/01/23 10:04:02;;;;;;;6.00;5.40;;;1.80;83.10;;;;;;4957830;29;20471;-69
2023/01/23 10:06:31;;;;;;;6.63;6.00;;;1.70;83.70;;;;;;4958228;29;20453;-69
2023/01/23 10:09:27;;;;;;;7.37;6.63;;;1.70;83.90;;;;;;4957890;29;20458;-68
2023/01/23 10:12:02;;;;;;;5.87;5.27;;;1.60;84.50;;;;;;4957764;29;20442;-68
2023/01/23 10:14:41;;;;;;;6.90;5.97;;;1.80;85.10;;;;;;5006014;23;20932;-69
2023/01/23 10:17:19;;;;;;;6.30;5.37;;;2.10;84.10;;;;;;4957198;29;20427;-69
2023/01/23 10:20:12;;;;;;;6.10;5.50;;;2.10;83.40;;;;;;4957123;29;20432;-69
2023/01/23 10:22:46;;;;;;;7.63;5.80;;;2.10;83.50;;;;;;4956977;29;20480;-70
2023/01/23 10:25:17;;;;;;;6.57;5.97;;;2.10;83.90;;;;;;4957055;29;20917;-70
2023/01/23 10:27:46;;;;;;;6.13;5.53;;;2.30;83.20;;;;;;4957134;29;20452;-69
2023/01/23 10:30:24;;;;;;;6.10;5.50;;;2.30;82.40;;;;;;4957005;29;20466;-70
2023/01/23 10:32:56;;;;;;;5.90;4.73;;;2.50;82.80;;;;;;4957191;29;20496;-69
2023/01/23 10:35:28;;;;;;;6.73;5.40;;;2.40;81.70;;;;;;4956889;29;20502;-69
2023/01/23 10:38:01;;;;;;;6.10;5.40;;;2.30;82.20;;;;;;4956841;29;20490;-69
2023/01/23 10:43:14;;;;;;;7.10;5.80;;;2.30;82.40;;;;;;4956432;29;20495;-68
2023/01/23 10:45:42;;;;;;;6.63;6.03;;;2.00;82.80;;;;;;4956220;29;21052;-68
2023/01/23 10:48:38;;;;;;;6.50;5.53;;;2.10;83.10;;;;;;4956646;29;20443;-68
2023/01/23 10:51:21;;;;;;;6.00;5.27;;;2.10;82.80;;;;;;4956626;28;20492;-68
2023/01/23 10:54:00;;;;;;;6.00;5.40;;;2.10;83.10;;;;;;4956471;29;20522;-68
2023/01/23 10:56:27;;;;;;;6.70;6.10;;;2.10;83.10;;;;;;4956431;29;20426;-68
2023/01/23 10:58:55;;;;;;;5.63;5.10;;;2.20;83.20;;;;;;4956387;29;20443;-68
2023/01/23 11:01:26;;;;;;;6.43;5.83;;;2.50;82.70;;;;;;4956306;29;20481;-68
2023/01/23 11:03:54;;;;;;;5.83;5.33;;;2.50;81.80;;;;;;4956277;29;20876;-68
2023/01/23 11:06:24;;;;;;;5.43;4.87;;;2.60;81.80;;;;;;4956327;29;20546;-68
2023/01/23 11:08:55;;;;;;;6.03;5.17;;;2.40;81.80;;;;;;4956569;29;20458;-68
2023/01/23 11:11:25;;;;;;;5.93;5.30;;;2.60;82.30;;;;;;4956268;29;20431;-68
2023/01/23 11:14:07;;;;;;;6.70;6.10;;;2.70;81.50;;;;;;4955952;29;20471;-69
2023/01/23 11:16:35;;;;;;;6.97;6.00;;;2.80;81.70;;;;;;4956091;29;20468;-68
2023/01/23 11:19:17;;;;;;;6.60;6.00;;;2.60;81.90;;;;;;4956127;29;20450;-70
2023/01/23 11:21:53;;;;;;;6.87;5.70;;;2.70;81.80;;;;;;4956153;29;20478;-68
2023/01/23 11:24:21;;;;;;;6.60;5.97;;;2.90;81.60;;;;;;4955945;29;20558;-68
2023/01/23 11:26:57;;;;;;;6.20;5.60;;;3.00;81.40;;;;;;4956071;29;20541;-67
2023/01/23 11:29:26;;;;;;;7.20;5.83;;;3.00;80.90;;;;;;4956008;29;20481;-68
2023/01/23 11:31:58;;;;;;;6.53;5.73;;;2.90;80.90;;;;;;4956019;29;20498;-68
2023/01/23 11:34:30;;;;;;;7.13;6.43;;;2.70;81.50;;;;;;4955629;29;20526;-68
2023/01/23 11:37:06;;;;;;;5.60;5.10;;;2.70;82.00;;;;;;4956032;29;20484;-68
2023/01/23 11:39:48;;;;;;;5.83;5.20;;;2.90;82.20;;;;;;4955826;29;20481;-68
2023/01/23 11:42:15;;;;;;;6.43;5.33;;;3.00;81.30;;;;;;4955703;29;20467;-68
2023/01/23 11:44:43;;;;;;;7.57;6.83;;;2.90;81.50;;;;;;4955810;29;20530;-68
2023/01/23 11:47:37;;;;;;;7.00;6.00;;;2.90;82.10;;;;;;4955980;29;20459;-69
2023/01/23 11:50:27;;;;;;;6.83;6.13;;;3.00;81.30;;;;;;4955652;29;20428;-68
2023/01/23 11:53:02;;;;;;;6.67;5.97;;;3.20;81.50;;;;;;4955025;28;20427;-68
2023/01/23 11:55:58;;;;;;;7.40;6.70;;;3.00;81.00;;;;;;4955556;29;20494;-68
2023/01/23 11:58:46;;;;;;;7.50;6.80;;;3.00;81.50;;;;;;4923385;29;20455;-69
2023/01/23 12:01:22;;;;;;;6.73;5.60;;;2.90;81.90;;;;;;4955164;29;20925;-68
2023/01/23 12:04:19;;;;;;;6.50;5.40;;;2.90;81.90;;;;;;4955696;28;20466;-69
2023/01/23 12:07:05;;;;;;;7.60;6.80;;;2.70;82.20;;;;;;4955504;29;20443;-69
2023/01/23 12:09:40;;;;;;;7.90;7.03;;;2.80;82.50;;;;;;4955025;29;20972;-69
2023/01/23 12:12:16;;;;;;;7.30;6.60;;;2.90;82.10;;;;;;4957375;29;20434;-69
2023/01/23 12:14:52;;;;;;;9.83;7.10;;;2.90;82.10;;;;;;4960051;29;20474;-70
2023/01/23 12:17:32;;;;;;;8.17;7.30;;;2.90;82.10;;;;;;4960055;29;20432;-69
2023/01/23 12:20:25;;;;;;;6.70;5.77;;;3.00;82.70;;;;;;4959568;29;20968;-71
2023/01/23 12:23:09;;;;;;;7.83;6.70;;;2.90;82.00;;;;;;4950545;29;20491;-68
2023/01/23 12:25:38;;;;;;;7.17;6.30;;;2.90;82.40;;;;;;4961014;28;20487;-70
2023/01/23 12:28:18;;;;;;;7.40;6.67;;;3.00;82.30;;;;;;4960450;29;20454;-69
2023/01/23 12:31:07;;;;;;;6.83;6.13;;;3.10;82.10;;;;;;4960608;29;20446;-72
2023/01/23 12:33:51;;;;;;;7.00;6.33;;;3.40;81.80;;;;;;4960206;29;20513;-69
2023/01/23 12:36:33;;;;;;;6.77;6.07;;;3.70;81.10;;;;;;4960734;29;20462;-69
2023/01/23 12:39:16;;;;;;;7.50;6.63;;;3.60;80.10;;;;;;4959650;29;20436;-70
2023/01/23 12:41:49;;;;;;;7.60;6.80;;;3.70;80.60;;;;;;4958159;29;20471;-69
2023/01/23 12:44:20;;;;;;;7.63;6.50;;;3.80;79.70;;;;;;4959982;29;20471;-70
2023/01/23 12:46:53;;;;;;;7.83;7.13;;;3.90;79.40;;;;;;4960276;29;20957;-71
2023/01/23 12:49:28;;;;;;;6.23;5.63;;;4.20;79.10;;;;;;4959817;29;20796;-69
2023/01/23 12:51:59;;;;;;;7.13;6.43;;;4.40;78.90;;;;;;4959673;29;20423;-69
2023/01/23 12:54:34;;;;;;;7.37;6.27;;;4.40;77.90;;;;;;4960093;28;20471;-69
2023/01/23 12:57:03;;;;;;;6.87;5.87;;;4.50;77.60;;;;;;4959863;29;20442;-69
2023/01/23 12:59:41;;;;;;;7.00;6.17;;;4.70;77.80;;;;;;4959585;29;20458;-71
2023/01/23 13:02:14;;;;;;;6.80;6.10;;;5.10;76.70;;;;;;4959812;29;20478;-70
2023/01/23 13:04:55;;;;;;;6.83;6.13;;;5.30;75.50;;;;;;4960500;28;20475;-72
2023/01/23 13:07:34;;;;;;;6.17;5.57;;;5.20;75.10;;;;;;4963838;29;20936;-70
2023/01/23 13:10:20;;;;;;;9.00;6.60;;;5.20;75.60;;;;;;4962003;29;20439;-70
2023/01/23 13:12:48;;;;;;;5.80;5.30;;;5.10;75.70;;;;;;4958067;29;20982;-69
2023/01/23 13:15:24;;;;;;;6.53;5.80;;;4.80;75.80;;;;;;4960880;29;20494;-70
2023/01/23 13:17:57;;;;;;;6.27;5.67;;;4.80;76.50;;;;;;4964841;29;20486;-68
2023/01/23 13:23:23;;;;;;;7.23;6.53;;;4.40;77.20;;;;;;4968792;29;20478;-69
2023/01/23 13:26:29;;;;;;;7.43;5.90;;;4.30;78.20;;;;;;4969263;29;20434;-70
2023/01/23 13:29:02;;;;;;;7.47;6.80;;;4.20;78.70;;;;;;4965623;29;20920;-69
2023/01/23 13:31:41;;;;;;;7.43;6.63;;;4.30;78.80;;;;;;4964399;29;20434;-70
2023/01/23 13:34:44;;;;;;;7.50;6.67;;;4.10;79.30;;;;;;4957899;29;20651;-70
2023/01/23 13:37:49;;;;;;;6.97;6.27;;;3.80;80.50;;;;;;4957953;29;20439;-69
2023/01/23 13:40:21;;;;;;;6.70;6.10;;;3.70;80.80;;;;;;4961351;29;20917;-69
2023/01/23 13:42:49;;;;;;;7.20;6.50;;;3.40;81.90;;;;;;4964467;29;20549;-68
2023/01/23 13:45:30;;;;;;;7.43;5.67;;;3.50;82.10;;;;;;4963361;29;20479;-71
2023/01/23 13:51:20;;;;;;;6.93;6.13;;;3.50;82.00;;;;;;4964604;29;20457;-70
2023/01/23 13:56:40;;;;;;;7.30;6.07;;;3.40;82.40;;;;;;4957637;29;20410;-68
2023/01/23 13:59:18;;;;;;;7.00;6.30;;;3.50;82.40;;;;;;4957542;29;20439;-69
2023/01/23 14:07:41;;;;;;;7.47;6.67;;;3.40;82.20;;;;;;4957098;29;20411;-69
2023/01/23 14:10:27;;;;;;;6.53;5.80;;;3.40;82.40;;;;;;4957207;29;20856;-69
2023/01/23 14:13:06;;;;;;;6.93;6.33;;;3.40;82.70;;;;;;4956927;29;20452;-69
2023/01/23 14:18:30;;;;;;;6.83;5.87;;;3.50;82.70;;;;;;4957253;29;20415;-69
2023/01/23 14:21:01;;;;;;;6.33;5.73;;;3.30;82.90;;;;;;4956811;29;20909;-69
2023/01/23 14:23:34;;;;;;;6.80;6.10;;;3.50;83.10;;;;;;4956849;29;21063;-70
2023/01/23 14:26:01;;;;;;;7.20;6.50;;;3.60;82.40;;;;;;4957047;29;20439;-69
2023/01/23 14:28:28;;;;;;;7.83;7.07;;;3.60;82.40;;;;;;4956602;29;20945;-69
2023/01/23 14:30:58;;;;;;;6.83;6.13;;;3.70;82.80;;;;;;4956875;29;20447;-69
2023/01/23 14:33:40;;;;;;;6.90;6.20;;;3.70;82.10;;;;;;4956738;29;20451;-69
2023/01/23 14:36:14;;;;;;;6.60;5.47;;;3.70;82.30;;;;;;4956833;29;20494;-69
2023/01/23 14:38:42;;;;;;;6.13;5.60;;;3.50;82.70;;;;;;4956797;29;20439;-69
2023/01/23 14:41:09;;;;;;;9.07;6.77;;;3.30;83.50;;;;;;4956316;29;20949;-69
2023/01/23 14:43:37;;;;;;;7.10;6.40;;;3.40;83.70;;;;;;4956475;29;20487;-69
2023/01/23 14:46:07;;;;;;;6.50;5.90;;;3.40;83.60;;;;;;4956296;29;20816;-70
2023/01/23 14:48:38;;;;;;;7.50;6.47;;;3.50;83.90;;;;;;4956539;29;20440;-69
2023/01/23 14:51:18;;;;;;;5.87;5.30;;;3.50;83.50;;;;;;4956864;28;20444;-70
2023/01/23 14:53:53;;;;;;;10.40;5.80;;;3.50;83.30;;;;;;4956464;29;20819;-72
2023/01/23 14:56:23;;;;;;;5.90;5.30;;;3.50;83.50;;;;;;4956415;29;20443;-70
2023/01/23 14:58:51;;;;;;;6.00;5.40;;;3.40;84.00;;;;;;4956439;29;20439;-71
2023/01/23 15:01:19;;;;;;;6.73;5.50;;;3.40;84.20;;;;;;4956316;29;20530;-70
2023/01/23 15:03:57;;;;;;;6.03;5.30;;;3.50;84.30;;;;;;4956163;29;20561;-70
2023/01/23 15:06:24;;;;;;;5.43;4.80;;;3.40;83.90;;;;;;4956276;29;20466;-70
2023/01/23 15:08:52;;;;;;;6.50;5.90;;;3.40;84.10;;;;;;4956178;29;20451;-70
2023/01/23 15:11:25;;;;;;;8.13;5.87;;;3.20;84.50;;;;;;4956161;29;20494;-70
2023/01/23 15:13:54;;;;;;;7.47;6.37;;;3.30;85.00;;;;;;4956215;29;20475;-71
2023/01/23 15:16:24;;;;;;;7.27;5.60;;;3.30;84.70;;;;;;4956139;29;20440;-70
2023/01/23 15:18:58;;;;;;;6.33;5.73;;;3.20;84.70;;;;;;4956222;29;20435;-70
2023/01/23 15:21:29;;;;;;;7.63;6.83;;;3.20;85.30;;;;;;4956125;29;20501;-70
2023/01/23 15:24:03;;;;;;;6.20;5.60;;;3.30;85.10;;;;;;4955994;29;20518;-70
2023/01/23 15:26:33;;;;;;;6.67;5.50;;;3.10;85.20;;;;;;4955708;29;20979;-69
2023/01/23 15:29:04;;;;;;;7.20;6.50;;;3.10;85.30;;;;;;4954675;28;21011;-70
2023/01/23 15:31:33;;;;;;;6.23;5.60;;;2.90;86.00;;;;;;4955861;29;20431;-70
2023/01/23 15:34:20;;;;;;;6.20;5.40;;;3.00;86.40;;;;;;4955424;29;20877;-69
2023/01/23 15:36:48;;;;;;;7.87;7.07;;;3.10;86.00;;;;;;4955782;29;20439;-69
2023/01/23 15:39:19;;;;;;;7.67;6.97;;;3.00;86.00;;;;;;4955669;29;20995;-69
2023/01/23 15:41:48;;;;;;;6.83;6.13;;;3.00;86.40;;;;;;4955743;29;20482;-70
2023/01/23 15:44:16;;;;;;;5.83;5.30;;;3.10;86.30;;;;;;4955578;29;20491;-70
2023/01/23 15:46:44;;;;;;;6.70;6.00;;;3.20;86.20;;;;;;4955346;29;20949;-69
2023/01/23 15:49:11;;;;;;;7.40;6.50;;;3.30;85.60;;;;;;4955572;29;20452;-69
2023/01/23 15:51:38;;;;;;;7.10;6.40;;;3.30;85.50;;;;;;4955451;29;20498;-70
2023/01/23 15:54:06;;;;;;;8.63;6.60;;;3.40;85.30;;;;;;4955124;29;20981;-70
2023/01/23 15:56:34;;;;;;;6.90;6.20;;;3.20;85.00;;;;;;4955430;29;20514;-69
2023/01/23 15:59:01;;;;;;;6.37;5.73;;;3.30;85.30;;;;;;4955358;29;20510;-69
2023/01/23 16:01:28;;;;;;;6.50;5.80;;;3.40;85.30;;;;;;4955370;29;20549;-69
2023/01/23 16:03:56;;;;;;;7.57;6.87;;;3.50;84.70;;;;;;4955131;29;20546;-70
2023/01/23 16:06:25;;;;;;;8.37;6.90;;;3.40;84.60;;;;;;4955280;29;20451;-69
2023/01/23 16:08:52;;;;;;;8.20;7.40;;;3.30;85.10;;;;;;4955330;29;20477;-69
2023/01/23 16:11:19;;;;;;;7.43;6.40;;;3.40;84.90;;;;;;4955267;29;20912;-69
2023/01/23 16:13:45;;;;;;;8.43;7.67;;;3.50;84.70;;;;;;4955034;29;20479;-71
2023/01/23 16:16:14;;;;;;;7.50;6.73;;;3.40;84.70;;;;;;4955869;29;20434;-69
2023/01/23 16:18:41;;;;;;;7.20;6.50;;;3.20;84.90;;;;;;4955089;29;20870;-69
2023/01/23 16:21:13;;;;;;;7.23;6.57;;;3.20;85.80;;;;;;4955408;29;20855;-68
2023/01/23 16:23:40;;;;;;;8.50;7.70;;;3.20;85.30;;;;;;4955122;29;20472;-68
2023/01/23 16:26:10;;;;;;;7.73;6.93;;;3.20;85.60;;;;;;4955295;28;20511;-68
2023/01/23 16:28:37;;;;;;;9.03;8.13;;;3.30;85.50;;;;;;4955121;29;20455;-68
2023/01/23 16:31:04;;;;;;;7.97;6.90;;;3.30;85.20;;;;;;4955121;29;20443;-69
2023/01/23 16:33:30;;;;;;;9.00;8.20;;;3.30;85.40;;;;;;4954734;29;20506;-69
2023/01/23 16:35:57;;;;;;;8.27;7.47;;;3.40;85.10;;;;;;4954867;29;20451;-69
2023/01/23 16:38:27;;;;;;;7.50;6.80;;;3.30;85.50;;;;;;4954730;29;20945;-69
2023/01/23 16:40:55;;;;;;;6.67;5.97;;;3.30;85.20;;;;;;4958291;28;20482;-69
2023/01/23 16:43:23;;;;;;;6.80;6.10;;;3.30;85.00;;;;;;4958718;29;20505;-70
2023/01/23 16:45:50;;;;;;;8.00;7.20;;;3.40;85.20;;;;;;4958854;29;20447;-69
2023/01/23 16:48:17;;;;;;;7.83;7.07;;;3.40;85.20;;;;;;4958851;29;20463;-69
2023/01/23 16:50:47;;;;;;;6.73;5.80;;;3.50;85.30;;;;;;4958695;29;20451;-69
2023/01/23 16:53:21;;;;;;;7.17;6.50;;;3.70;84.70;;;;;;4958736;29;20491;-69
2023/01/23 16:55:50;;;;;;;7.67;6.97;;;3.70;83.90;;;;;;4958802;29;20435;-68
2023/01/23 16:58:19;;;;;;;7.93;7.23;;;3.50;84.40;;;;;;4958911;29;20454;-70
2023/01/23 17:00:46;;;;;;;7.90;7.10;;;3.50;84.80;;;;;;4958387;29;20941;-69
2023/01/23 17:03:21;;;;;;;7.47;6.70;;;3.40;84.70;;;;;;4958734;28;20541;-69
2023/01/23 17:05:48;;;;;;;7.63;6.93;;;3.40;84.70;;;;;;4958300;29;20979;-69
2023/01/23 17:08:17;;;;;;;7.83;7.13;;;3.40;84.80;;;;;;4958565;29;20478;-69
2023/01/23 17:10:45;;;;;;;7.60;6.90;;;3.20;85.40;;;;;;4958379;29;20461;-69
2023/01/23 17:13:13;;;;;;;7.27;6.57;;;3.20;85.80;;;;;;4958492;28;20463;-68
2023/01/23 17:15:40;;;;;;;6.83;6.13;;;3.20;85.70;;;;;;4957944;28;20534;-71
2023/01/23 17:18:15;;;;;;;6.70;6.00;;;3.30;85.70;;;;;;4958040;29;20457;-72
2023/01/23 17:20:41;;;;;;;7.30;6.60;;;3.30;85.50;;;;;;4958303;29;20447;-70
2023/01/23 17:23:10;;;;;;;6.53;5.63;;;3.30;85.50;;;;;;4958347;29;20483;-71
2023/01/23 17:25:39;;;;;;;6.43;5.83;;;3.20;85.80;;;;;;4958441;29;20510;-72
2023/01/23 17:28:05;;;;;;;7.30;6.60;;;3.30;86.00;;;;;;4958379;29;20502;-71
2023/01/23 17:30:33;;;;;;;8.17;7.37;;;3.40;85.40;;;;;;4958105;29;20450;-72
2023/01/23 17:33:00;;;;;;;6.90;6.20;;;3.30;85.40;;;;;;4957799;29;20447;-71
2023/01/23 17:35:34;;;;;;;8.00;7.20;;;3.40;85.50;;;;;;4957693;29;21004;-71
2023/01/23 17:38:00;;;;;;;6.57;5.73;;;3.40;85.00;;;;;;4957710;29;20819;-71